Mr. Cass — WDB5593 — position and weather

sailwx.info

Track history (hours):
 
Tides and Currents Weather Stations Pressure Air Temp Water Temp Dewpoint Dewpoint Depression Visibility Wind Speed Wind Dir Waves Ship Positions

Mr. Cass

Owner: Cass Marine Towing LLC, Marrero, LA. More information available from US FCC via Universal Licensing System and Coast Guard Vessel Documentation Center.

Last reported at 2014-Dec-19 07:33 UTC. Time now 2014-Dec-19 08:01 UTC.
Position N 29°54' W 090°07'.

Length 17 m; draft 3.5 m.

Type: Towing. MMSI: 366911310.

Date/timePositionNaut miles runAvg speedWind from/ knotsBaromVisibWave heightAir tempDewpointWater temp
2014-Dec-19 07:33N 29°54' W 090°07'0 0.0
2014-Dec-19 06:31N 29°54' W 090°07'0 0.0
2014-Dec-19 05:31N 29°54' W 090°07'0 0.0
2014-Dec-19 04:33N 29°54' W 090°07'0 0.0
2014-Dec-19 03:33N 29°54' W 090°07'0 0.0
2014-Dec-19 02:33N 29°54' W 090°07'0 0.0
2014-Dec-19 01:33N 29°54' W 090°07'0 0.0
2014-Dec-19 00:30N 29°54' W 090°07'0 0.0
2014-Dec-18 12:28N 29°54' W 090°07'3 0.8
2014-Dec-18 08:19N 29°57' W 090°10'5 2.3
2014-Dec-18 06:09N 29°54' W 090°05'2 3.1
2014-Dec-18 05:33N 29°52' W 090°04'2 1.9
2014-Dec-18 04:17N 29°50' W 090°04'1 1.1
2014-Dec-18 03:27N 29°50' W 090°03'6 6.2
2014-Dec-18 02:33N 29°55' W 089°59'1 1.0
2014-Dec-18 01:32N 29°56' W 089°59'3 3.3
2014-Dec-18 00:32N 29°58' W 090°02'1 1.3
2014-Dec-17 23:29N 29°59' W 090°01'0 0.2
2014-Dec-17 22:33N 29°59' W 090°01'3 2.8
2014-Dec-17 21:31N 30°00' W 089°58'0 0.1
2014-Dec-17 20:20N 30°00' W 089°58'4 4.8
2014-Dec-17 19:31N 29°58' W 090°02'4 4.3
2014-Dec-17 18:29N 29°55' W 090°05'1 0.1
2014-Dec-16 23:33N 29°54' W 090°05'0 0.0
2014-Dec-16 20:30N 29°54' W 090°05'0 0.0
2014-Dec-16 19:30N 29°54' W 090°05'0 0.0
2014-Dec-16 18:33N 29°54' W 090°05'0 0.0
2014-Dec-16 17:22N 29°54' W 090°05'0 0.0
2014-Dec-16 16:30N 29°54' W 090°05'0 0.0
2014-Dec-16 15:18N 29°54' W 090°05'0 0.0
2014-Dec-16 14:23N 29°54' W 090°05'0 0.0
2014-Dec-16 13:18N 29°54' W 090°05'0 0.0
2014-Dec-16 12:07N 29°54' W 090°05'0 0.0
2014-Dec-16 11:25N 29°54' W 090°05'0 0.0
2014-Dec-16 09:17N 29°54' W 090°05'0 0.0
2014-Dec-16 08:22N 29°54' W 090°05'0 0.0
2014-Dec-15 15:20N 29°54' W 090°05'0 0.0
2014-Dec-15 14:24N 29°54' W 090°05'0 0.0
2014-Dec-15 13:28N 29°54' W 090°05'0 0.0
2014-Dec-15 12:11N 29°54' W 090°05'0 0.0
2014-Dec-15 11:30N 29°54' W 090°05'0 0.0
2014-Dec-15 10:32N 29°54' W 090°05'0 0.0
2014-Dec-15 09:29N 29°54' W 090°05'0 0.0
2014-Dec-15 08:31N 29°54' W 090°05'0 0.0
2014-Dec-15 07:31N 29°54' W 090°05'0 0.0
2014-Dec-15 06:33N 29°54' W 090°05'0 0.0
2014-Dec-15 05:32N 29°54' W 090°05'0 0.0
2014-Dec-15 04:31N 29°54' W 090°05'0 0.0
2014-Dec-15 03:19N 29°54' W 090°05'0 0.0
2014-Dec-15 02:16N 29°54' W 090°05'0 0.0
2014-Dec-15 01:23N 29°54' W 090°05'0 0.0
2014-Dec-14 08:32N 29°54' W 090°05'0 0.0
2014-Dec-14 06:13N 29°54' W 090°05'0 0.0
2014-Dec-14 05:06N 29°54' W 090°05'0 0.0
2014-Dec-14 04:27N 29°54' W 090°05'0 0.0
2014-Dec-14 03:33N 29°54' W 090°05'0 0.0
2014-Dec-14 02:33N 29°54' W 090°05'0 0.0
2014-Dec-14 01:29N 29°54' W 090°05'0 0.0
2014-Dec-14 00:32N 29°54' W 090°05'0 0.0
2014-Dec-13 23:33N 29°54' W 090°05'0 0.0
2014-Dec-13 22:30N 29°54' W 090°05'0 0.0
2014-Dec-13 21:33N 29°54' W 090°05'0 0.0
2014-Dec-13 20:33N 29°54' W 090°05'0 0.0
2014-Dec-13 19:26N 29°54' W 090°05'0 0.0
2014-Dec-13 18:32N 29°54' W 090°05'0 0.0
2014-Dec-13 17:32N 29°54' W 090°05'0 0.0
2014-Dec-13 16:31N 29°54' W 090°05'0 0.0
2014-Dec-13 15:29N 29°54' W 090°05'0 0.0
2014-Dec-13 14:33N 29°54' W 090°05'0 0.0
2014-Dec-13 13:32N 29°54' W 090°05'0 0.0
2014-Dec-13 12:28N 29°54' W 090°05'0 0.0
2014-Dec-13 10:27N 29°54' W 090°05'0 0.0
2014-Dec-12 15:12N 29°54' W 090°05'0 0.0
2014-Dec-12 12:32N 29°54' W 090°05'0 0.0
2014-Dec-12 11:20N 29°54' W 090°05'0 0.0
2014-Dec-12 10:33N 29°54' W 090°05'0 0.0
2014-Dec-12 09:29N 29°54' W 090°05'0 0.0
2014-Dec-12 08:26N 29°54' W 090°05'0 0.0
2014-Dec-12 07:32N 29°54' W 090°05'0 0.0
2014-Dec-12 06:32N 29°54' W 090°05'0 0.0
2014-Dec-12 05:32N 29°54' W 090°05'0 0.0
2014-Dec-12 04:33N 29°54' W 090°05'0 0.0
2014-Dec-12 03:33N 29°54' W 090°05'0 0.0
2014-Dec-12 02:33N 29°54' W 090°05'0 0.0
2014-Dec-12 01:32N 29°54' W 090°05'0 0.0
2014-Dec-12 00:07N 29°54' W 090°05'0 0.0
2014-Dec-11 23:20N 29°54' W 090°05'0 0.0
2014-Dec-11 22:13N 29°54' W 090°05'0 0.0
2014-Dec-11 03:32N 29°54' W 090°05'0 0.0
2014-Dec-11 02:32N 29°54' W 090°05'0 0.0
2014-Dec-11 01:30N 29°54' W 090°05'0 0.0
2014-Dec-11 00:17N 29°54' W 090°05'0 0.0
2014-Dec-10 23:31N 29°54' W 090°05'0 0.0
2014-Dec-10 22:30N 29°54' W 090°05'0 0.0
2014-Dec-10 21:21N 29°54' W 090°05'0 0.0
2014-Dec-10 20:32N 29°54' W 090°05'0 0.0
2014-Dec-10 19:33N 29°54' W 090°05'0 0.0
2014-Dec-10 18:30N 29°54' W 090°05'0 0.0
2014-Dec-10 17:32N 29°54' W 090°05'0 0.0
2014-Dec-10 16:20N 29°54' W 090°05'0 0.0
2014-Dec-10 15:29N 29°54' W 090°05'0 0.0
2014-Dec-10 14:18N 29°54' W 090°05'3 0.1
2014-Dec-09 16:18N 29°54' W 090°07'0 0.0
2014-Dec-09 15:27N 29°54' W 090°07'0 0.0
2014-Dec-09 14:32N 29°54' W 090°07'0 0.0
2014-Dec-09 13:23N 29°54' W 090°07'0 0.0
2014-Dec-09 12:29N 29°54' W 090°07'0 0.0
2014-Dec-09 11:33N 29°54' W 090°07'0 0.0
2014-Dec-09 10:25N 29°54' W 090°07'0 0.0
2014-Dec-09 09:30N 29°54' W 090°07'0 0.0
2014-Dec-09 08:28N 29°54' W 090°07'  
Track history (hours):
 
Tides and Currents Weather Stations Pressure Air Temp Water Temp Dewpoint Dewpoint Depression Visibility Wind Speed Wind Dir Waves Ship Positions

Mr. Cass

Owner: Cass Marine Towing LLC, Marrero, LA. More information available from US FCC via Universal Licensing System and Coast Guard Vessel Documentation Center.

Last reported at 2014-Dec-19 07:33 UTC. Time now 2014-Dec-19 08:01 UTC.
Position N 29°54' W 090°07'.

Length 17 m; draft 3.5 m.

Type: Towing. MMSI: 366911310.

Date/timePositionNaut miles runAvg speedWind from/ knotsBaromVisibWave heightAir tempDewpointWater temp
2014-Dec-19 07:33N 29°54' W 090°07'0 0.0
2014-Dec-19 06:31N 29°54' W 090°07'0 0.0
2014-Dec-19 05:31N 29°54' W 090°07'0 0.0
2014-Dec-19 04:33N 29°54' W 090°07'0 0.0
2014-Dec-19 03:33N 29°54' W 090°07'0 0.0
2014-Dec-19 02:33N 29°54' W 090°07'0 0.0
2014-Dec-19 01:33N 29°54' W 090°07'0 0.0
2014-Dec-19 00:30N 29°54' W 090°07'0 0.0
2014-Dec-18 12:28N 29°54' W 090°07'3 0.8
2014-Dec-18 08:19N 29°57' W 090°10'5 2.3
2014-Dec-18 06:09N 29°54' W 090°05'2 3.1
2014-Dec-18 05:33N 29°52' W 090°04'2 1.9
2014-Dec-18 04:17N 29°50' W 090°04'1 1.1
2014-Dec-18 03:27N 29°50' W 090°03'6 6.2
2014-Dec-18 02:33N 29°55' W 089°59'1 1.0
2014-Dec-18 01:32N 29°56' W 089°59'3 3.3
2014-Dec-18 00:32N 29°58' W 090°02'1 1.3
2014-Dec-17 23:29N 29°59' W 090°01'0 0.2
2014-Dec-17 22:33N 29°59' W 090°01'3 2.8
2014-Dec-17 21:31N 30°00' W 089°58'0 0.1
2014-Dec-17 20:20N 30°00' W 089°58'4 4.8
2014-Dec-17 19:31N 29°58' W 090°02'4 4.3
2014-Dec-17 18:29N 29°55' W 090°05'1 0.1
2014-Dec-16 23:33N 29°54' W 090°05'0 0.0
2014-Dec-16 20:30N 29°54' W 090°05'0 0.0
2014-Dec-16 19:30N 29°54' W 090°05'0 0.0
2014-Dec-16 18:33N 29°54' W 090°05'0 0.0
2014-Dec-16 17:22N 29°54' W 090°05'0 0.0
2014-Dec-16 16:30N 29°54' W 090°05'0 0.0
2014-Dec-16 15:18N 29°54' W 090°05'0 0.0
2014-Dec-16 14:23N 29°54' W 090°05'0 0.0
2014-Dec-16 13:18N 29°54' W 090°05'0 0.0
2014-Dec-16 12:07N 29°54' W 090°05'0 0.0
2014-Dec-16 11:25N 29°54' W 090°05'0 0.0
2014-Dec-16 09:17N 29°54' W 090°05'0 0.0
2014-Dec-16 08:22N 29°54' W 090°05'0 0.0
2014-Dec-15 15:20N 29°54' W 090°05'0 0.0
2014-Dec-15 14:24N 29°54' W 090°05'0 0.0
2014-Dec-15 13:28N 29°54' W 090°05'0 0.0
2014-Dec-15 12:11N 29°54' W 090°05'0 0.0
2014-Dec-15 11:30N 29°54' W 090°05'0 0.0
2014-Dec-15 10:32N 29°54' W 090°05'0 0.0
2014-Dec-15 09:29N 29°54' W 090°05'0 0.0
2014-Dec-15 08:31N 29°54' W 090°05'0 0.0
2014-Dec-15 07:31N 29°54' W 090°05'0 0.0
2014-Dec-15 06:33N 29°54' W 090°05'0 0.0
2014-Dec-15 05:32N 29°54' W 090°05'0 0.0
2014-Dec-15 04:31N 29°54' W 090°05'0 0.0
2014-Dec-15 03:19N 29°54' W 090°05'0 0.0
2014-Dec-15 02:16N 29°54' W 090°05'0 0.0
2014-Dec-15 01:23N 29°54' W 090°05'0 0.0
2014-Dec-14 08:32N 29°54' W 090°05'0 0.0
2014-Dec-14 06:13N 29°54' W 090°05'0 0.0
2014-Dec-14 05:06N 29°54' W 090°05'0 0.0
2014-Dec-14 04:27N 29°54' W 090°05'0 0.0
2014-Dec-14 03:33N 29°54' W 090°05'0 0.0
2014-Dec-14 02:33N 29°54' W 090°05'0 0.0
2014-Dec-14 01:29N 29°54' W 090°05'0 0.0
2014-Dec-14 00:32N 29°54' W 090°05'0 0.0
2014-Dec-13 23:33N 29°54' W 090°05'0 0.0
2014-Dec-13 22:30N 29°54' W 090°05'0 0.0
2014-Dec-13 21:33N 29°54' W 090°05'0 0.0
2014-Dec-13 20:33N 29°54' W 090°05'0 0.0
2014-Dec-13 19:26N 29°54' W 090°05'0 0.0
2014-Dec-13 18:32N 29°54' W 090°05'0 0.0
2014-Dec-13 17:32N 29°54' W 090°05'0 0.0
2014-Dec-13 16:31N 29°54' W 090°05'0 0.0
2014-Dec-13 15:29N 29°54' W 090°05'0 0.0
2014-Dec-13 14:33N 29°54' W 090°05'0 0.0
2014-Dec-13 13:32N 29°54' W 090°05'0 0.0
2014-Dec-13 12:28N 29°54' W 090°05'0 0.0
2014-Dec-13 10:27N 29°54' W 090°05'0 0.0
2014-Dec-12 15:12N 29°54' W 090°05'0 0.0
2014-Dec-12 12:32N 29°54' W 090°05'0 0.0
2014-Dec-12 11:20N 29°54' W 090°05'0 0.0
2014-Dec-12 10:33N 29°54' W 090°05'0 0.0
2014-Dec-12 09:29N 29°54' W 090°05'0 0.0
2014-Dec-12 08:26N 29°54' W 090°05'0 0.0
2014-Dec-12 07:32N 29°54' W 090°05'0 0.0
2014-Dec-12 06:32N 29°54' W 090°05'0 0.0
2014-Dec-12 05:32N 29°54' W 090°05'0 0.0
2014-Dec-12 04:33N 29°54' W 090°05'0 0.0
2014-Dec-12 03:33N 29°54' W 090°05'0 0.0
2014-Dec-12 02:33N 29°54' W 090°05'0 0.0
2014-Dec-12 01:32N 29°54' W 090°05'0 0.0
2014-Dec-12 00:07N 29°54' W 090°05'0 0.0
2014-Dec-11 23:20N 29°54' W 090°05'0 0.0
2014-Dec-11 22:13N 29°54' W 090°05'0 0.0
2014-Dec-11 03:32N 29°54' W 090°05'0 0.0
2014-Dec-11 02:32N 29°54' W 090°05'0 0.0
2014-Dec-11 01:30N 29°54' W 090°05'0 0.0
2014-Dec-11 00:17N 29°54' W 090°05'0 0.0
2014-Dec-10 23:31N 29°54' W 090°05'0 0.0
2014-Dec-10 22:30N 29°54' W 090°05'0 0.0
2014-Dec-10 21:21N 29°54' W 090°05'0 0.0
2014-Dec-10 20:32N 29°54' W 090°05'0 0.0
2014-Dec-10 19:33N 29°54' W 090°05'0 0.0
2014-Dec-10 18:30N 29°54' W 090°05'0 0.0
2014-Dec-10 17:32N 29°54' W 090°05'0 0.0
2014-Dec-10 16:20N 29°54' W 090°05'0 0.0
2014-Dec-10 15:29N 29°54' W 090°05'0 0.0
2014-Dec-10 14:18N 29°54' W 090°05'3 0.1
2014-Dec-09 16:18N 29°54' W 090°07'0 0.0
2014-Dec-09 15:27N 29°54' W 090°07'0 0.0
2014-Dec-09 14:32N 29°54' W 090°07'0 0.0
2014-Dec-09 13:23N 29°54' W 090°07'0 0.0
2014-Dec-09 12:29N 29°54' W 090°07'0 0.0
2014-Dec-09 11:33N 29°54' W 090°07'0 0.0
2014-Dec-09 10:25N 29°54' W 090°07'0 0.0
2014-Dec-09 09:30N 29°54' W 090°07'0 0.0
2014-Dec-09 08:28N 29°54' W 090°07'  

Dump ship's entire track history